createdAt,value
2022-10-08T00:00:19.733Z,12.65
2022-10-08T00:01:19.734Z,12.59
2022-10-08T00:02:19.836Z,12.57
2022-10-08T00:03:19.735Z,12.57
2022-10-08T00:04:19.826Z,12.57
2022-10-08T00:05:19.726Z,12.54
2022-10-08T00:06:19.726Z,12.46
2022-10-08T00:07:19.720Z,12.41
2022-10-08T00:08:19.725Z,12.47
2022-10-08T00:09:19.741Z,12.49
2022-10-08T00:10:19.721Z,12.45
2022-10-08T00:11:19.721Z,12.45
2022-10-08T00:12:19.720Z,12.47
2022-10-08T00:13:19.718Z,12.45
2022-10-08T00:14:19.717Z,12.41
2022-10-08T00:15:19.715Z,12.46
2022-10-08T00:16:19.780Z,12.45
2022-10-08T00:17:19.713Z,12.45
2022-10-08T00:18:19.713Z,12.39
2022-10-08T00:19:19.710Z,12.46
2022-10-08T00:20:19.709Z,12.37
2022-10-08T00:21:19.705Z,12.42
2022-10-08T00:22:19.706Z,12.31
2022-10-08T00:23:19.708Z,12.34
2022-10-08T00:24:19.705Z,12.38
2022-10-08T00:25:19.725Z,12.29
2022-10-08T00:26:19.707Z,12.28
2022-10-08T00:27:19.702Z,12.31
2022-10-08T00:28:19.750Z,12.41
2022-10-08T00:29:19.703Z,12.34
2022-10-08T00:30:19.697Z,12.42
2022-10-08T00:31:19.757Z,12.45
2022-10-08T00:32:19.702Z,12.41
2022-10-08T00:33:19.696Z,12.45
2022-10-08T00:34:19.693Z,12.49
2022-10-08T00:35:19.694Z,12.49
2022-10-08T00:36:19.695Z,12.53
2022-10-08T00:37:19.697Z,12.42
2022-10-08T00:38:19.688Z,12.49
2022-10-08T00:39:19.698Z,12.45
2022-10-08T00:40:19.685Z,12.52
2022-10-08T00:41:19.708Z,12.42
2022-10-08T00:42:19.694Z,12.50
2022-10-08T00:43:23.898Z,12.42
2022-10-08T00:44:19.684Z,12.46
2022-10-08T00:45:19.679Z,12.59
2022-10-08T00:46:19.679Z,12.53
2022-10-08T00:47:19.679Z,12.46
2022-10-08T00:48:19.676Z,12.45
2022-10-08T00:49:19.683Z,12.42
2022-10-08T00:50:19.677Z,12.45
2022-10-08T00:51:19.686Z,12.46
2022-10-08T00:52:19.684Z,12.50
2022-10-08T00:53:19.678Z,12.46
2022-10-08T00:54:19.681Z,12.45
2022-10-08T00:55:19.670Z,12.54
2022-10-08T00:56:19.669Z,12.54
2022-10-08T00:57:19.692Z,12.49
2022-10-08T00:58:19.672Z,12.49
2022-10-08T00:59:19.668Z,12.49
2022-10-08T01:00:19.713Z,12.50
2022-10-08T01:01:19.730Z,12.38
2022-10-08T01:02:19.788Z,12.46
2022-10-08T01:03:19.665Z,12.50
2022-10-08T01:04:19.664Z,12.49
2022-10-08T01:05:19.664Z,12.47
2022-10-08T01:06:19.668Z,12.42
2022-10-08T01:07:19.661Z,12.45
2022-10-08T01:08:19.657Z,12.46
2022-10-08T01:09:19.847Z,12.49
2022-10-08T01:10:19.653Z,12.42
2022-10-08T01:11:19.662Z,12.52
2022-10-08T01:12:19.650Z,12.47
2022-10-08T01:13:19.782Z,12.47
2022-10-08T01:14:19.654Z,12.45
2022-10-08T01:15:19.648Z,12.52
2022-10-08T01:16:19.669Z,12.39
2022-10-08T01:17:19.650Z,12.45
2022-10-08T01:18:19.649Z,12.47
2022-10-08T01:19:19.643Z,12.54
2022-10-08T01:20:19.645Z,12.53
2022-10-08T01:21:19.647Z,12.53
2022-10-08T01:22:19.638Z,12.60
2022-10-08T01:23:19.636Z,12.57
2022-10-08T01:24:19.640Z,12.56
2022-10-08T01:25:19.637Z,12.54
2022-10-08T01:26:19.647Z,12.42
2022-10-08T01:27:19.632Z,12.52
2022-10-08T01:28:19.767Z,12.57
2022-10-08T01:29:19.655Z,12.54
2022-10-08T01:30:19.631Z,12.42
2022-10-08T01:31:19.684Z,12.49
2022-10-08T01:32:19.631Z,12.52
2022-10-08T01:33:19.628Z,12.65
2022-10-08T01:34:19.628Z,12.68
2022-10-08T01:35:19.630Z,12.62
2022-10-08T01:36:19.620Z,12.67
2022-10-08T01:37:19.626Z,12.71
2022-10-08T01:38:19.620Z,12.72
2022-10-08T01:39:19.622Z,12.89
2022-10-08T01:40:19.619Z,12.85
2022-10-08T01:41:19.621Z,12.90
2022-10-08T01:42:19.617Z,12.90
2022-10-08T01:43:19.619Z,12.85
2022-10-08T01:44:19.613Z,12.96
2022-10-08T01:45:19.652Z,13.00
2022-10-08T01:46:19.704Z,12.87
2022-10-08T01:47:19.611Z,12.95
2022-10-08T01:48:19.608Z,12.97
2022-10-08T01:49:19.607Z,13.00
2022-10-08T01:50:19.605Z,12.97
2022-10-08T01:51:19.608Z,12.89
2022-10-08T01:52:19.606Z,12.86
2022-10-08T01:53:19.606Z,12.90
2022-10-08T01:54:19.602Z,12.87
2022-10-08T01:55:19.601Z,12.92
2022-10-08T01:56:19.602Z,12.90
2022-10-08T01:57:19.600Z,12.89
2022-10-08T01:58:19.597Z,12.87
2022-10-08T01:59:19.594Z,12.93
2022-10-08T02:00:19.599Z,12.82
2022-10-08T02:01:19.689Z,12.83
2022-10-08T02:02:19.653Z,12.72
2022-10-08T02:03:19.598Z,12.87
2022-10-08T02:04:19.602Z,12.92
2022-10-08T02:05:19.591Z,12.87
2022-10-08T02:06:19.597Z,12.97
2022-10-08T02:07:19.609Z,12.90
2022-10-08T02:08:19.602Z,13.03
2022-10-08T02:09:19.590Z,12.95
2022-10-08T02:10:19.587Z,12.93
2022-10-08T02:11:19.586Z,12.87
2022-10-08T02:12:19.584Z,12.92
2022-10-08T02:13:19.582Z,12.87
2022-10-08T02:14:19.588Z,12.92
2022-10-08T02:15:19.581Z,13.00
2022-10-08T02:16:19.622Z,12.92
2022-10-08T02:17:19.607Z,12.85
2022-10-08T02:18:19.574Z,12.86
2022-10-08T02:19:19.574Z,13.03
2022-10-08T02:20:19.568Z,13.04
2022-10-08T02:21:19.571Z,13.04
2022-10-08T02:22:19.571Z,12.97
2022-10-08T02:23:19.567Z,13.03
2022-10-08T02:24:19.573Z,13.03
2022-10-08T02:25:19.569Z,13.05
2022-10-08T02:26:19.567Z,12.95
2022-10-08T02:27:19.565Z,13.05
2022-10-08T02:28:19.618Z,13.05
2022-10-08T02:29:19.566Z,12.97
2022-10-08T02:30:19.562Z,13.05
2022-10-08T02:31:19.630Z,12.92
2022-10-08T02:32:19.561Z,13.00
2022-10-08T02:33:19.578Z,12.97
2022-10-08T02:34:19.555Z,13.00
2022-10-08T02:35:19.554Z,12.89
2022-10-08T02:36:19.555Z,12.89
2022-10-08T02:37:19.551Z,12.89
2022-10-08T02:38:19.563Z,12.85
2022-10-08T02:39:19.551Z,12.90
2022-10-08T02:40:19.557Z,12.95
2022-10-08T02:41:19.552Z,12.89
2022-10-08T02:42:19.556Z,12.82
2022-10-08T02:43:19.551Z,12.83
2022-10-08T02:44:19.548Z,12.87
2022-10-08T02:45:19.546Z,12.92
2022-10-08T02:46:19.602Z,12.78
2022-10-08T02:47:19.545Z,12.92
2022-10-08T02:48:19.539Z,12.90
2022-10-08T02:49:19.559Z,12.83
2022-10-08T02:50:19.541Z,12.87
2022-10-08T02:51:19.541Z,12.83
2022-10-08T02:52:19.535Z,12.75
2022-10-08T02:53:19.536Z,12.77
2022-10-08T02:54:19.533Z,12.82
2022-10-08T02:55:19.529Z,12.77
2022-10-08T02:56:19.532Z,12.83
2022-10-08T02:57:19.530Z,12.83
2022-10-08T02:58:19.533Z,12.77
2022-10-08T02:59:19.525Z,12.72
2022-10-08T03:00:19.529Z,12.82
2022-10-08T03:01:19.674Z,12.78
2022-10-08T03:02:19.568Z,12.82
2022-10-08T03:03:19.524Z,12.75
2022-10-08T03:04:19.525Z,12.90
2022-10-08T03:05:19.548Z,12.89
2022-10-08T03:06:19.521Z,12.86
2022-10-08T03:07:19.520Z,12.83
2022-10-08T03:08:19.519Z,12.89
2022-10-08T03:09:19.515Z,12.92
2022-10-08T03:10:19.514Z,12.83
2022-10-08T03:11:19.513Z,12.90
2022-10-08T03:12:19.515Z,12.92
2022-10-08T03:13:19.514Z,12.93
2022-10-08T03:14:19.512Z,12.83
2022-10-08T03:15:19.509Z,12.87
2022-10-08T03:16:19.548Z,12.75
2022-10-08T03:17:19.506Z,12.92
2022-10-08T03:18:19.510Z,12.82
2022-10-08T03:19:19.511Z,12.78
2022-10-08T03:20:19.505Z,12.78
2022-10-08T03:21:19.523Z,12.82
2022-10-08T03:22:19.495Z,12.79
2022-10-08T03:23:19.498Z,12.78
2022-10-08T03:24:19.505Z,12.75
2022-10-08T03:25:19.494Z,12.68
2022-10-08T03:26:19.496Z,12.67
2022-10-08T03:27:19.492Z,12.71
2022-10-08T03:28:19.579Z,12.68
2022-10-08T03:29:19.491Z,12.65
2022-10-08T03:30:19.498Z,12.70
2022-10-08T03:31:19.600Z,12.67
2022-10-08T03:32:19.490Z,12.65
2022-10-08T03:33:19.491Z,12.68
2022-10-08T03:34:19.486Z,12.70
2022-10-08T03:35:19.487Z,12.68
2022-10-08T03:36:19.490Z,12.56
2022-10-08T03:37:19.507Z,12.49
2022-10-08T03:38:19.485Z,12.54
2022-10-08T03:39:19.480Z,12.56
2022-10-08T03:40:19.482Z,12.52
2022-10-08T03:41:19.476Z,12.57
2022-10-08T03:42:19.477Z,12.56
2022-10-08T03:43:19.476Z,12.47
2022-10-08T03:44:19.478Z,12.49
2022-10-08T03:45:19.472Z,12.39
2022-10-08T03:46:19.520Z,12.49
2022-10-08T03:47:19.474Z,12.46
2022-10-08T03:48:19.467Z,12.52
2022-10-08T03:49:19.474Z,12.50
2022-10-08T03:50:19.467Z,12.45
2022-10-08T03:51:19.462Z,12.45
2022-10-08T03:52:19.466Z,12.42
2022-10-08T03:53:19.486Z,12.34
2022-10-08T03:54:19.470Z,12.35
2022-10-08T03:55:19.461Z,12.29
2022-10-08T03:56:19.475Z,12.34
2022-10-08T03:57:19.458Z,12.32
2022-10-08T03:58:19.463Z,12.31
2022-10-08T03:59:19.455Z,12.35
2022-10-08T04:00:19.454Z,12.29
2022-10-08T04:01:19.516Z,12.34
2022-10-08T04:02:19.507Z,12.34
2022-10-08T04:03:19.445Z,12.32
2022-10-08T04:04:24.548Z,12.39
2022-10-08T04:05:19.447Z,12.39
2022-10-08T04:06:19.448Z,12.46
2022-10-08T04:07:19.447Z,12.47
2022-10-08T04:08:19.446Z,12.49
2022-10-08T04:09:19.466Z,12.49
2022-10-08T04:10:19.446Z,12.45
2022-10-08T04:11:19.442Z,12.46
2022-10-08T04:12:19.436Z,12.49
2022-10-08T04:13:19.435Z,12.32
2022-10-08T04:14:19.439Z,12.34
2022-10-08T04:15:19.436Z,12.39
2022-10-08T04:16:19.534Z,12.37
2022-10-08T04:17:19.430Z,12.41
2022-10-08T04:18:19.432Z,12.46
2022-10-08T04:19:19.428Z,12.42
2022-10-08T04:20:19.430Z,12.42
2022-10-08T04:21:19.425Z,12.47
2022-10-08T04:22:19.427Z,12.38
2022-10-08T04:23:19.422Z,12.41
2022-10-08T04:24:19.425Z,12.39
2022-10-08T04:25:19.444Z,12.41
2022-10-08T04:26:19.425Z,12.38
2022-10-08T04:27:19.418Z,12.37
2022-10-08T04:28:19.516Z,12.45
2022-10-08T04:29:19.420Z,12.38
2022-10-08T04:30:19.414Z,12.31
2022-10-08T04:31:19.493Z,12.37
2022-10-08T04:32:19.413Z,12.39
2022-10-08T04:33:19.412Z,12.34
2022-10-08T04:34:19.415Z,12.27
2022-10-08T04:35:19.413Z,12.37
2022-10-08T04:36:19.408Z,12.27
2022-10-08T04:37:19.411Z,12.37
2022-10-08T04:38:19.409Z,12.38
2022-10-08T04:39:19.413Z,12.37
2022-10-08T04:40:19.414Z,12.31
2022-10-08T04:41:19.428Z,12.29
2022-10-08T04:42:19.402Z,12.27
2022-10-08T04:43:19.403Z,12.37
2022-10-08T04:44:19.398Z,12.39
2022-10-08T04:45:19.396Z,12.46
2022-10-08T04:46:19.495Z,12.42
2022-10-08T04:47:19.394Z,12.39
2022-10-08T04:48:19.394Z,12.46
2022-10-08T04:49:19.388Z,12.47
2022-10-08T04:50:19.391Z,12.46
2022-10-08T04:51:19.389Z,12.34
2022-10-08T04:52:19.392Z,12.45
2022-10-08T04:53:19.386Z,12.32
2022-10-08T04:54:19.384Z,12.31
2022-10-08T04:55:19.388Z,12.38
2022-10-08T04:56:19.384Z,12.31
2022-10-08T04:57:19.404Z,12.32
2022-10-08T04:58:19.380Z,12.32
2022-10-08T04:59:19.376Z,12.28
2022-10-08T05:00:19.612Z,12.32
2022-10-08T05:01:19.476Z,12.31
2022-10-08T05:02:19.401Z,12.39
2022-10-08T05:03:19.375Z,12.39
2022-10-08T05:04:19.371Z,12.29
2022-10-08T05:05:19.371Z,12.34
2022-10-08T05:06:19.368Z,12.32
2022-10-08T05:07:19.364Z,12.29
2022-10-08T05:08:19.368Z,12.31
2022-10-08T05:09:19.363Z,12.20
2022-10-08T05:10:19.368Z,12.28
2022-10-08T05:11:19.364Z,12.20
2022-10-08T05:12:19.363Z,12.19
2022-10-08T05:13:19.374Z,12.24
2022-10-08T05:14:19.358Z,12.23
2022-10-08T05:15:19.356Z,12.20
2022-10-08T05:16:19.472Z,12.24
2022-10-08T05:17:19.351Z,12.14
2022-10-08T05:18:19.353Z,12.19
2022-10-08T05:19:19.356Z,12.27
2022-10-08T05:20:19.352Z,12.21
2022-10-08T05:21:19.346Z,12.17
2022-10-08T05:22:19.347Z,12.24
2022-10-08T05:23:19.349Z,12.19
2022-10-08T05:24:19.351Z,12.14
2022-10-08T05:25:19.347Z,12.19
2022-10-08T05:26:19.345Z,12.13
2022-10-08T05:27:19.344Z,12.12
2022-10-08T05:28:19.373Z,12.10
2022-10-08T05:29:19.366Z,12.10
2022-10-08T05:30:21.940Z,12.10
2022-10-08T05:31:19.368Z,12.05
2022-10-08T05:32:19.336Z,12.07
2022-10-08T05:33:19.330Z,11.99
2022-10-08T05:34:19.333Z,11.94
2022-10-08T05:35:19.330Z,12.04
2022-10-08T05:36:19.329Z,11.98
2022-10-08T05:37:19.331Z,11.94
2022-10-08T05:38:19.324Z,11.98
2022-10-08T05:39:19.321Z,12.01
2022-10-08T05:40:19.321Z,12.02
2022-10-08T05:41:19.320Z,11.98
2022-10-08T05:42:19.320Z,11.95
2022-10-08T05:43:19.320Z,11.95
2022-10-08T05:44:19.317Z,11.95
2022-10-08T05:45:19.410Z,11.96
2022-10-08T05:46:19.343Z,11.96
2022-10-08T05:47:19.313Z,11.99
2022-10-08T05:48:19.315Z,12.02
2022-10-08T05:49:19.309Z,11.94
2022-10-08T05:50:19.307Z,11.98
2022-10-08T05:51:19.309Z,11.96
2022-10-08T05:52:19.310Z,11.94
2022-10-08T05:53:19.303Z,12.01
2022-10-08T05:54:19.304Z,11.90
2022-10-08T05:55:19.296Z,12.09
2022-10-08T05:56:19.300Z,12.10
2022-10-08T05:57:19.295Z,12.05
2022-10-08T05:58:19.295Z,12.13
2022-10-08T05:59:19.294Z,12.16
2022-10-08T06:00:19.295Z,12.24
2022-10-08T06:01:19.312Z,12.23
2022-10-08T06:02:19.293Z,12.31
2022-10-08T06:03:19.290Z,12.34
2022-10-08T06:04:19.385Z,12.38
2022-10-08T06:05:19.284Z,12.46
2022-10-08T06:06:19.283Z,12.47
2022-10-08T06:07:19.282Z,12.42
2022-10-08T06:08:19.290Z,12.45
2022-10-08T06:09:19.278Z,12.56
2022-10-08T06:10:19.285Z,12.54
2022-10-08T06:11:19.276Z,12.54
2022-10-08T06:12:19.276Z,12.56
2022-10-08T06:13:19.274Z,12.54
2022-10-08T06:14:19.291Z,12.64
2022-10-08T06:15:19.277Z,12.59
2022-10-08T06:16:19.320Z,12.52
2022-10-08T06:17:19.296Z,12.46
2022-10-08T06:18:19.265Z,12.38
2022-10-08T06:19:19.265Z,12.46
2022-10-08T06:20:19.268Z,12.49
2022-10-08T06:21:19.260Z,12.45
2022-10-08T06:22:19.262Z,12.31
2022-10-08T06:23:19.261Z,12.32
2022-10-08T06:24:19.258Z,12.38
2022-10-08T06:25:19.258Z,12.41
2022-10-08T06:26:19.257Z,12.39
2022-10-08T06:27:19.252Z,12.39
2022-10-08T06:28:19.286Z,12.38
2022-10-08T06:29:19.248Z,12.39
2022-10-08T06:30:19.286Z,12.38
2022-10-08T06:31:19.319Z,12.32
2022-10-08T06:32:19.249Z,12.41
2022-10-08T06:33:19.268Z,12.45
2022-10-08T06:34:19.248Z,12.49
2022-10-08T06:35:19.243Z,12.46
2022-10-08T06:36:19.245Z,12.37
2022-10-08T06:37:19.239Z,12.39
2022-10-08T06:38:19.239Z,12.39
2022-10-08T06:39:19.234Z,12.42
2022-10-08T06:40:19.240Z,12.45
2022-10-08T06:41:19.230Z,12.53
2022-10-08T06:42:19.237Z,12.54
2022-10-08T06:43:19.234Z,12.56
2022-10-08T06:44:19.281Z,12.64
2022-10-08T06:45:19.227Z,12.67
2022-10-08T06:46:19.332Z,12.70
2022-10-08T06:47:19.223Z,12.75
2022-10-08T06:48:19.227Z,12.78
2022-10-08T06:49:19.246Z,12.82
2022-10-08T06:50:19.223Z,12.90
2022-10-08T06:51:19.224Z,12.97
2022-10-08T06:52:19.218Z,12.97
2022-10-08T06:53:19.222Z,13.01
2022-10-08T06:54:19.216Z,13.04
2022-10-08T06:55:19.218Z,13.04
2022-10-08T06:56:19.213Z,13.03
2022-10-08T06:57:19.210Z,12.97
2022-10-08T06:58:19.215Z,12.96
2022-10-08T06:59:19.209Z,13.01
2022-10-08T07:00:19.207Z,13.00
2022-10-08T07:01:19.312Z,13.11
2022-10-08T07:02:19.285Z,13.19
2022-10-08T07:03:19.202Z,13.11
2022-10-08T07:04:19.202Z,13.08
2022-10-08T07:05:19.225Z,13.19
2022-10-08T07:06:19.197Z,13.28
2022-10-08T07:07:19.198Z,13.41
2022-10-08T07:08:19.199Z,13.52
2022-10-08T07:09:19.198Z,13.70
2022-10-08T07:10:19.195Z,13.87
2022-10-08T07:11:19.193Z,13.95
2022-10-08T07:12:19.195Z,14.06
2022-10-08T07:13:19.190Z,14.20
2022-10-08T07:14:19.188Z,14.29
2022-10-08T07:15:19.187Z,14.36
2022-10-08T07:16:21.099Z,14.47
2022-10-08T07:17:19.184Z,14.52
2022-10-08T07:18:19.186Z,14.69
2022-10-08T07:19:19.186Z,14.75
2022-10-08T07:20:19.179Z,14.73
2022-10-08T07:21:19.202Z,14.73
2022-10-08T07:22:19.182Z,14.73
2022-10-08T07:23:19.178Z,14.73
2022-10-08T07:24:19.179Z,14.77
2022-10-08T07:25:19.177Z,14.81
2022-10-08T07:26:19.181Z,14.88
2022-10-08T07:27:19.176Z,14.86
2022-10-08T07:28:19.288Z,14.88
2022-10-08T07:29:19.174Z,14.86
2022-10-08T07:30:19.166Z,14.84
2022-10-08T07:31:19.224Z,14.95
2022-10-08T07:32:19.172Z,14.94
2022-10-08T07:33:19.168Z,14.96
2022-10-08T07:34:19.167Z,14.98
2022-10-08T07:35:19.169Z,15.09
2022-10-08T07:36:19.163Z,15.34
2022-10-08T07:37:19.184Z,15.69
2022-10-08T07:38:19.163Z,15.97
2022-10-08T07:39:19.166Z,16.25
2022-10-08T07:40:19.167Z,16.56
2022-10-08T07:41:19.161Z,16.67
2022-10-08T07:42:19.157Z,16.91
2022-10-08T07:43:19.910Z,17.03
2022-10-08T07:44:19.160Z,17.07
2022-10-08T07:45:19.158Z,17.26
2022-10-08T07:46:19.157Z,17.44
2022-10-08T07:47:19.160Z,17.56
2022-10-08T07:48:19.156Z,17.74
2022-10-08T07:49:19.157Z,17.77
2022-10-08T07:50:19.149Z,17.92
2022-10-08T07:51:19.151Z,17.95
2022-10-08T07:52:19.151Z,18.12
2022-10-08T07:53:19.170Z,18.07
2022-10-08T07:54:19.160Z,18.33
2022-10-08T07:55:19.153Z,18.44
2022-10-08T07:56:19.149Z,18.63
2022-10-08T07:57:19.145Z,18.60
2022-10-08T07:58:19.148Z,18.52
2022-10-08T07:59:19.149Z,18.47
2022-10-08T08:00:23.852Z,18.45
2022-10-08T08:01:19.214Z,18.33
2022-10-08T08:02:19.314Z,18.08
2022-10-08T08:03:19.148Z,18.12
2022-10-08T08:04:19.152Z,18.23
2022-10-08T08:05:19.149Z,18.36
2022-10-08T08:06:19.143Z,18.47
2022-10-08T08:07:19.143Z,18.50
2022-10-08T08:08:19.144Z,18.52
2022-10-08T08:09:19.166Z,18.58
2022-10-08T08:10:19.141Z,18.67
2022-10-08T08:11:19.141Z,19.06
2022-10-08T08:12:19.147Z,19.32
2022-10-08T08:13:19.138Z,19.71
2022-10-08T08:14:19.144Z,19.87
2022-10-08T08:15:19.139Z,20.21
2022-10-08T08:16:19.222Z,20.50
2022-10-08T08:17:19.140Z,20.80
2022-10-08T08:18:19.142Z,21.10
2022-10-08T08:19:19.142Z,21.25
2022-10-08T08:20:19.138Z,21.37
2022-10-08T08:21:19.138Z,21.29
2022-10-08T08:22:19.140Z,21.52
2022-10-08T08:23:19.140Z,21.52
2022-10-08T08:24:19.140Z,21.32
2022-10-08T08:25:19.158Z,21.46
2022-10-08T08:26:19.138Z,21.64
2022-10-08T08:27:19.139Z,21.80
2022-10-08T08:28:19.242Z,22.18
2022-10-08T08:29:19.141Z,22.39
2022-10-08T08:30:19.136Z,22.73
2022-10-08T08:31:19.149Z,22.80
2022-10-08T08:32:19.139Z,22.64
2022-10-08T08:33:19.136Z,22.75
2022-10-08T08:34:19.153Z,23.07
2022-10-08T08:35:19.145Z,23.17
2022-10-08T08:36:19.142Z,23.54
2022-10-08T08:37:19.145Z,23.68
2022-10-08T08:38:19.140Z,23.58
2022-10-08T08:39:19.144Z,23.72
2022-10-08T08:40:19.143Z,23.90
2022-10-08T08:41:20.662Z,23.98
2022-10-08T08:42:19.144Z,24.20
2022-10-08T08:43:19.150Z,24.40
2022-10-08T08:44:19.150Z,24.34
2022-10-08T08:45:44.849Z,24.31
2022-10-08T08:46:19.257Z,24.32
2022-10-08T08:47:19.152Z,24.25
2022-10-08T08:48:19.159Z,24.12
2022-10-08T08:49:19.327Z,23.94
2022-10-08T08:50:19.154Z,24.15
2022-10-08T08:51:19.159Z,24.18
2022-10-08T08:52:19.161Z,23.95
2022-10-08T08:53:19.162Z,23.90
2022-10-08T08:54:19.169Z,23.93
2022-10-08T08:55:19.165Z,23.87
2022-10-08T08:56:19.168Z,24.06
2022-10-08T08:57:19.195Z,24.12
2022-10-08T08:58:19.169Z,24.03
2022-10-08T08:59:19.179Z,23.97
2022-10-08T09:00:19.178Z,24.13
2022-10-08T09:01:19.214Z,24.31
2022-10-08T09:02:19.181Z,24.25
2022-10-08T09:03:19.184Z,24.12
2022-10-08T09:04:19.196Z,24.28
2022-10-08T09:05:19.255Z,24.25
2022-10-08T09:06:19.197Z,24.45
2022-10-08T09:07:19.202Z,24.85
2022-10-08T09:08:19.206Z,25.06
2022-10-08T09:09:19.216Z,25.35
2022-10-08T09:10:19.214Z,25.51
2022-10-08T09:11:19.221Z,25.67
2022-10-08T09:12:21.014Z,25.77
2022-10-08T09:13:19.252Z,25.77
2022-10-08T09:14:19.234Z,25.82
2022-10-08T09:15:19.240Z,25.97
2022-10-08T09:16:19.308Z,26.44
2022-10-08T09:17:19.271Z,26.75
2022-10-08T09:18:19.263Z,27.22
2022-10-08T09:19:19.272Z,27.55
2022-10-08T09:20:19.278Z,27.70
2022-10-08T09:21:19.284Z,28.06
2022-10-08T09:22:19.291Z,27.96
2022-10-08T09:23:19.298Z,28.12
2022-10-08T09:24:19.312Z,28.51
2022-10-08T09:25:19.317Z,28.55
2022-10-08T09:26:19.325Z,28.61
2022-10-08T09:27:19.343Z,28.74
2022-10-08T09:28:19.375Z,29.11
2022-10-08T09:29:19.375Z,29.65
2022-10-08T09:30:19.360Z,29.97
2022-10-08T09:31:19.435Z,29.68
2022-10-08T09:32:19.379Z,28.66
2022-10-08T09:33:19.387Z,28.52
2022-10-08T09:34:19.402Z,28.03
2022-10-08T09:35:19.406Z,27.57
2022-10-08T09:36:19.419Z,27.50
2022-10-08T09:37:19.429Z,27.27
2022-10-08T09:38:19.444Z,27.51
2022-10-08T09:39:19.448Z,27.77
2022-10-08T09:40:19.462Z,26.80
2022-10-08T09:41:19.485Z,26.67
2022-10-08T09:42:19.479Z,26.51
2022-10-08T09:43:19.492Z,26.97
2022-10-08T09:44:19.497Z,27.82
2022-10-08T09:45:22.244Z,27.74
2022-10-08T09:46:19.563Z,28.06
2022-10-08T09:47:19.615Z,27.84
2022-10-08T09:48:19.544Z,27.69
2022-10-08T09:49:19.548Z,28.19
2022-10-08T09:50:19.627Z,28.51
2022-10-08T09:51:19.569Z,28.51
2022-10-08T09:52:19.575Z,27.93
2022-10-08T09:53:19.590Z,27.31
2022-10-08T09:54:19.593Z,26.77
2022-10-08T09:55:19.611Z,26.54
2022-10-08T09:56:19.618Z,25.50
2022-10-08T09:57:19.625Z,24.98
2022-10-08T09:58:19.642Z,24.49
2022-10-08T09:59:19.646Z,24.35
2022-10-08T10:00:19.782Z,24.24
2022-10-08T10:01:19.766Z,24.02
2022-10-08T10:02:19.674Z,24.03
2022-10-08T10:03:19.690Z,24.08
2022-10-08T10:04:19.793Z,23.91
2022-10-08T10:05:20.029Z,24.15
2022-10-08T10:06:21.268Z,23.90
2022-10-08T10:07:19.718Z,24.60
2022-10-08T10:08:19.724Z,24.67
2022-10-08T10:09:19.730Z,24.47
2022-10-08T10:10:19.836Z,24.28
2022-10-08T10:11:19.751Z,24.13
2022-10-08T10:12:19.757Z,23.95
2022-10-08T10:13:19.760Z,24.00
2022-10-08T10:14:19.762Z,23.84
2022-10-08T10:15:19.769Z,23.72
2022-10-08T10:16:20.067Z,23.61
2022-10-08T10:17:19.803Z,23.48
2022-10-08T10:18:19.838Z,23.15
2022-10-08T10:19:19.815Z,23.22
2022-10-08T10:20:19.827Z,23.16
2022-10-08T10:22:19.815Z,22.75
2022-10-08T10:23:19.821Z,22.75
2022-10-08T10:24:19.827Z,22.68
2022-10-08T10:25:19.832Z,22.67
2022-10-08T10:26:19.840Z,22.70
2022-10-08T10:27:19.851Z,22.67
2022-10-08T10:28:19.893Z,22.60
2022-10-08T10:29:19.856Z,22.76
2022-10-08T10:30:19.860Z,22.88
2022-10-08T10:31:19.945Z,22.94
2022-10-08T10:32:21.269Z,23.12
2022-10-08T10:33:19.897Z,23.02
2022-10-08T10:34:19.875Z,22.98
2022-10-08T10:35:19.882Z,22.97
2022-10-08T10:36:19.883Z,23.12
2022-10-08T10:37:19.960Z,23.22
2022-10-08T10:38:19.890Z,23.09
2022-10-08T10:39:19.894Z,22.86
2022-10-08T10:40:19.903Z,22.75
2022-10-08T10:41:20.007Z,22.60
2022-10-08T10:42:19.908Z,22.57
2022-10-08T10:43:19.910Z,22.35
2022-10-08T10:44:19.920Z,21.98
2022-10-08T10:45:19.916Z,21.91
2022-10-08T10:46:19.980Z,21.75
2022-10-08T10:47:19.922Z,21.64
2022-10-08T10:48:19.930Z,21.68
2022-10-08T10:49:19.953Z,21.64
2022-10-08T10:50:19.928Z,21.56
2022-10-08T10:51:19.930Z,21.29
2022-10-08T10:52:19.936Z,21.25
2022-10-08T10:53:19.939Z,21.03
2022-10-08T10:54:19.944Z,21.21
2022-10-08T10:55:19.951Z,21.13
2022-10-08T10:56:19.946Z,21.19
2022-10-08T10:57:19.952Z,21.22
2022-10-08T10:58:19.955Z,21.27
2022-10-08T10:59:19.956Z,21.40
2022-10-08T11:00:19.960Z,21.37
2022-10-08T11:01:19.975Z,21.40
2022-10-08T11:02:20.012Z,21.07
2022-10-08T11:03:19.964Z,20.94
2022-10-08T11:04:19.971Z,20.69
2022-10-08T11:05:19.989Z,20.54
2022-10-08T11:06:19.973Z,20.51
2022-10-08T11:07:19.976Z,20.61
2022-10-08T11:08:19.977Z,20.72
2022-10-08T11:09:19.978Z,20.79
2022-10-08T11:10:19.979Z,20.69
2022-10-08T11:11:19.980Z,20.67
2022-10-08T11:12:19.989Z,20.69
2022-10-08T11:13:19.983Z,20.77
2022-10-08T11:14:19.988Z,20.72
2022-10-08T11:15:19.990Z,20.57
2022-10-08T11:16:20.054Z,20.59
2022-10-08T11:17:22.199Z,20.58
2022-10-08T11:18:19.994Z,20.59
2022-10-08T11:19:19.998Z,20.66
2022-10-08T11:20:20.000Z,20.69
2022-10-08T11:21:20.020Z,20.69
2022-10-08T11:22:20.002Z,20.64
2022-10-08T11:23:20.004Z,20.59
2022-10-08T11:24:20.002Z,20.33
2022-10-08T11:25:20.010Z,20.24
2022-10-08T11:26:22.708Z,20.32
2022-10-08T11:27:20.013Z,20.33
2022-10-08T11:28:20.137Z,20.38
2022-10-08T11:29:20.013Z,20.36
2022-10-08T11:30:20.020Z,20.48
2022-10-08T11:31:20.085Z,20.38
2022-10-08T11:32:20.014Z,20.43
2022-10-08T11:33:20.020Z,20.51
2022-10-08T11:34:20.018Z,20.55
2022-10-08T11:35:20.020Z,20.58
2022-10-08T11:36:20.025Z,20.51
2022-10-08T11:37:20.042Z,20.39
2022-10-08T11:38:20.019Z,20.26
2022-10-08T11:39:20.024Z,20.13
2022-10-08T11:40:20.024Z,20.20
2022-10-08T11:41:20.036Z,20.28
2022-10-08T11:42:20.029Z,20.29
2022-10-08T11:43:20.028Z,20.17
2022-10-08T11:44:20.028Z,20.14
2022-10-08T11:45:20.032Z,20.05
2022-10-08T11:46:20.083Z,20.05
2022-10-08T11:47:20.038Z,20.17
2022-10-08T11:48:20.039Z,20.14
2022-10-08T11:49:20.035Z,20.08
2022-10-08T11:50:20.033Z,19.96
2022-10-08T11:51:20.054Z,19.78
2022-10-08T11:52:20.044Z,19.78
2022-10-08T11:53:20.067Z,19.74
2022-10-08T11:54:20.038Z,19.61
2022-10-08T11:55:20.040Z,19.61
2022-10-08T11:56:20.037Z,19.48
2022-10-08T11:57:20.047Z,19.62
2022-10-08T11:58:20.038Z,19.41
2022-10-08T11:59:20.046Z,19.14
2022-10-08T12:00:20.046Z,19.10
2022-10-08T12:01:20.045Z,18.87
2022-10-08T12:02:20.217Z,18.95
2022-10-08T12:03:20.238Z,19.00
2022-10-08T12:04:20.045Z,19.00
2022-10-08T12:05:20.047Z,18.99
2022-10-08T12:06:20.051Z,18.73
2022-10-08T12:07:20.066Z,18.72
2022-10-08T12:08:20.051Z,18.63
2022-10-08T12:09:20.077Z,18.60
2022-10-08T12:10:20.060Z,18.70
2022-10-08T12:11:20.055Z,18.76
2022-10-08T12:12:20.052Z,18.66
2022-10-08T12:13:20.051Z,18.65
2022-10-08T12:14:20.060Z,18.44
2022-10-08T12:15:20.063Z,18.54
2022-10-08T12:16:20.178Z,18.37
2022-10-08T12:17:20.051Z,18.44
2022-10-08T12:18:23.744Z,18.47
2022-10-08T12:19:20.048Z,18.42
2022-10-08T12:20:20.059Z,18.54
2022-10-08T12:21:20.058Z,18.62
2022-10-08T12:22:20.056Z,18.67
2022-10-08T12:23:20.062Z,18.76
2022-10-08T12:24:20.062Z,18.87
2022-10-08T12:25:20.078Z,19.10
2022-10-08T12:26:20.060Z,19.25
2022-10-08T12:27:20.064Z,19.19
2022-10-08T12:28:20.160Z,19.29
2022-10-08T12:29:20.059Z,19.50
2022-10-08T12:30:20.063Z,19.50
2022-10-08T12:31:20.145Z,19.68
2022-10-08T12:32:20.066Z,19.71
2022-10-08T12:33:20.064Z,19.71
2022-10-08T12:34:20.063Z,19.80
2022-10-08T12:35:20.070Z,19.88
2022-10-08T12:36:20.076Z,19.80
2022-10-08T12:37:20.065Z,19.80
2022-10-08T12:38:20.065Z,19.76
2022-10-08T12:39:20.071Z,19.78
2022-10-08T12:40:20.067Z,19.78
2022-10-08T12:41:20.085Z,19.88
2022-10-08T12:42:20.068Z,19.68
2022-10-08T12:43:20.067Z,19.74
2022-10-08T12:44:20.064Z,19.66
2022-10-08T12:45:20.071Z,19.84
2022-10-08T12:46:20.153Z,19.74
2022-10-08T12:47:20.086Z,19.68
2022-10-08T12:48:20.082Z,19.71
2022-10-08T12:49:20.096Z,19.84
2022-10-08T12:50:20.085Z,19.94
2022-10-08T12:51:20.072Z,19.81
2022-10-08T12:52:20.068Z,19.88
2022-10-08T12:53:20.074Z,19.96